createdAt,value
2019-06-20T00:00:17.072Z,11.500000
2019-06-20T00:02:47.425Z,14.200000
2019-06-20T00:05:17.820Z,14.200000
2019-06-20T00:07:48.317Z,11.400000
2019-06-20T00:10:18.665Z,11.400000
2019-06-20T00:12:59.873Z,16.900000
2019-06-20T00:15:30.965Z,13.600000
2019-06-20T00:18:01.289Z,13.600000
2019-06-20T00:20:31.757Z,22.800000
2019-06-20T00:23:02.085Z,22.800000
2019-06-20T00:25:32.631Z,22.700000
2019-06-20T00:28:03.566Z,22.700000
2019-06-20T00:30:34.012Z,17.400000
2019-06-20T00:33:04.459Z,17.400000
2019-06-20T00:35:34.790Z,18.400000
2019-06-20T00:38:05.147Z,18.400000
2019-06-20T00:40:35.686Z,16.100000
2019-06-20T00:43:16.894Z,16.100000
2019-06-20T00:45:47.595Z,14.800000
2019-06-20T00:48:17.919Z,14.800000
2019-06-20T00:50:48.260Z,14.800000
2019-06-20T00:53:18.706Z,14.800000
2019-06-20T00:55:49.053Z,17.900000
2019-06-20T00:58:19.688Z,17.900000
2019-06-20T01:00:49.989Z,14.000000
2019-06-20T01:03:20.404Z,14.000000
2019-06-20T01:05:50.823Z,12.200000
2019-06-20T01:08:21.245Z,12.200000
2019-06-20T01:10:51.570Z,19.000000
2019-06-20T01:13:32.975Z,19.000000
2019-06-20T01:16:04.200Z,12.700000
2019-06-20T01:18:34.624Z,12.700000
2019-06-20T01:21:05.152Z,13.200000
2019-06-20T01:23:35.567Z,13.200000
2019-06-20T01:26:05.824Z,14.700000
2019-06-20T01:28:36.328Z,14.700000
2019-06-20T01:31:06.757Z,18.000000
2019-06-20T01:33:37.179Z,18.000000
2019-06-20T01:36:07.589Z,18.000000
2019-06-20T01:38:37.819Z,18.000000
2019-06-20T01:41:08.220Z,17.200000
2019-06-20T01:43:50.003Z,17.200000
2019-06-20T01:46:21.813Z,15.100000
2019-06-20T01:48:52.142Z,15.100000
2019-06-20T01:51:22.446Z,14.100000
2019-06-20T01:53:52.973Z,14.100000
2019-06-20T01:56:23.276Z,13.500000
2019-06-20T01:58:53.600Z,13.500000
2019-06-20T02:01:24.108Z,22.700000
2019-06-20T02:03:54.633Z,22.700000
2019-06-20T02:06:25.005Z,23.200000
2019-06-20T02:09:00.479Z,23.200000
2019-06-20T02:11:30.745Z,19.100000
2019-06-20T02:14:07.188Z,19.100000
2019-06-20T02:16:38.074Z,19.600000
2019-06-20T02:19:08.570Z,19.600000
2019-06-20T02:21:38.990Z,12.700000
2019-06-20T02:24:09.693Z,12.700000
2019-06-20T02:26:40.234Z,12.400000
2019-06-20T02:29:11.794Z,12.400000
2019-06-20T02:31:47.196Z,17.100000
2019-06-20T02:34:17.553Z,17.100000
2019-06-20T02:36:47.868Z,17.200000
2019-06-20T02:39:18.472Z,17.200000
2019-06-20T02:41:49.074Z,11.900000
2019-06-20T02:44:29.790Z,11.900000
2019-06-20T02:47:01.268Z,14.900000
2019-06-20T02:49:31.600Z,14.900000
2019-06-20T02:52:01.912Z,12.100000
2019-06-20T02:54:32.312Z,12.100000
2019-06-20T02:57:02.729Z,10.500000
2019-06-20T02:59:33.049Z,10.500000
2019-06-20T03:02:03.550Z,13.000000
2019-06-20T03:04:34.019Z,13.000000
2019-06-20T03:07:04.561Z,13.100000
2019-06-20T03:09:35.045Z,13.100000
2019-06-20T03:12:05.345Z,14.000000
2019-06-20T03:14:45.081Z,14.000000
2019-06-20T03:17:16.331Z,11.000000
2019-06-20T03:19:46.639Z,11.000000
2019-06-20T03:22:16.957Z,7.900000
2019-06-20T03:24:47.468Z,7.900000
2019-06-20T03:27:17.791Z,10.400000
2019-06-20T03:29:48.412Z,10.400000
2019-06-20T03:32:18.786Z,10.000000
2019-06-20T03:34:49.308Z,10.000000
2019-06-20T03:37:19.718Z,11.700000
2019-06-20T03:39:50.151Z,11.700000
2019-06-20T03:42:20.664Z,9.200000
2019-06-20T03:45:01.754Z,9.200000
2019-06-20T03:47:33.049Z,7.400000
2019-06-20T03:50:03.363Z,9.700000
2019-06-20T03:52:33.569Z,9.700000
2019-06-20T03:55:03.865Z,9.900000
2019-06-20T03:57:34.463Z,9.900000
2019-06-20T04:00:04.904Z,8.900000
2019-06-20T04:02:35.452Z,8.900000
2019-06-20T04:05:05.987Z,9.200000
2019-06-20T04:07:36.334Z,9.200000
2019-06-20T04:10:06.856Z,8.200000
2019-06-20T04:12:37.333Z,8.200000
2019-06-20T04:15:18.516Z,9.900000
2019-06-20T04:17:49.692Z,9.900000
2019-06-20T04:20:20.146Z,6.900000
2019-06-20T04:22:50.505Z,6.900000
2019-06-20T04:25:20.847Z,7.200000
2019-06-20T04:27:51.567Z,7.200000
2019-06-20T04:30:22.011Z,8.800000
2019-06-20T04:32:52.662Z,8.800000
2019-06-20T04:35:23.282Z,7.200000
2019-06-20T04:37:53.665Z,7.200000
2019-06-20T04:40:23.996Z,7.800000
2019-06-20T04:42:54.538Z,7.800000
2019-06-20T04:45:34.672Z,5.200000
2019-06-20T04:48:06.297Z,5.200000
2019-06-20T04:50:37.231Z,8.100000
2019-06-20T04:53:07.733Z,8.100000
2019-06-20T04:55:38.209Z,6.300000
2019-06-20T04:58:08.539Z,6.300000
2019-06-20T05:00:38.863Z,7.100000
2019-06-20T05:03:09.203Z,7.100000
2019-06-20T05:05:39.524Z,6.700000
2019-06-20T05:08:09.873Z,6.700000
2019-06-20T05:10:41.032Z,7.400000
2019-06-20T05:13:11.582Z,7.400000
2019-06-20T05:15:52.027Z,6.800000
2019-06-20T05:18:23.517Z,6.800000
2019-06-20T05:20:54.148Z,6.500000
2019-06-20T05:23:24.844Z,6.500000
2019-06-20T05:25:55.198Z,6.200000
2019-06-20T05:28:25.660Z,6.200000
2019-06-20T05:30:56.418Z,7.100000
2019-06-20T05:33:27.500Z,7.100000
2019-06-20T05:35:58.056Z,7.100000
2019-06-20T05:38:28.660Z,7.100000
2019-06-20T05:40:59.190Z,7.800000
2019-06-20T05:43:29.553Z,7.800000
2019-06-20T05:46:09.687Z,4.700000
2019-06-20T05:48:43.325Z,4.700000
2019-06-20T05:51:13.894Z,6.300000
2019-06-20T05:53:44.277Z,6.300000
2019-06-20T05:56:14.596Z,7.700000
2019-06-20T05:58:45.972Z,7.700000
2019-06-20T06:01:16.512Z,7.400000
2019-06-20T06:03:46.899Z,7.400000
2019-06-20T06:06:17.354Z,7.100000
2019-06-20T06:08:47.904Z,7.100000
2019-06-20T06:11:18.616Z,5.400000
2019-06-20T06:13:49.093Z,5.400000
2019-06-20T06:16:27.008Z,6.800000
2019-06-20T06:18:58.742Z,6.800000
2019-06-20T06:21:29.501Z,7.000000
2019-06-20T06:23:59.807Z,7.000000
2019-06-20T06:26:30.251Z,5.900000
2019-06-20T06:29:00.592Z,5.900000
2019-06-20T06:31:31.136Z,6.000000
2019-06-20T06:34:01.780Z,6.000000
2019-06-20T06:36:32.107Z,4.600000
2019-06-20T06:39:02.770Z,4.600000
2019-06-20T06:41:33.265Z,5.800000
2019-06-20T06:44:03.804Z,5.800000
2019-06-20T06:46:44.825Z,6.100000
2019-06-20T06:49:19.246Z,6.100000
2019-06-20T06:51:49.899Z,6.200000
2019-06-20T06:54:20.386Z,6.200000
2019-06-20T06:56:50.813Z,5.800000
2019-06-20T06:59:21.038Z,5.800000
2019-06-20T07:01:51.469Z,6.100000
2019-06-20T07:04:21.808Z,6.100000
2019-06-20T07:06:52.329Z,9.100000
2019-06-20T07:09:22.664Z,9.100000
2019-06-20T07:11:53.234Z,6.800000
2019-06-20T07:14:23.636Z,6.800000
2019-06-20T07:17:00.391Z,9.400000
2019-06-20T07:19:31.323Z,6.900000
2019-06-20T07:22:02.111Z,6.900000
2019-06-20T07:24:32.608Z,8.600000
2019-06-20T07:27:03.180Z,8.600000
2019-06-20T07:29:33.651Z,5.100000
2019-06-20T07:32:04.071Z,5.100000
2019-06-20T07:34:34.625Z,6.700000
2019-06-20T07:37:05.006Z,6.700000
2019-06-20T07:39:35.455Z,8.500000
2019-06-20T07:42:06.040Z,8.500000
2019-06-20T07:44:36.488Z,6.800000
2019-06-20T07:47:17.024Z,6.800000
2019-06-20T07:49:48.311Z,7.000000
2019-06-20T07:52:18.712Z,7.000000
2019-06-20T07:54:49.265Z,8.700000
2019-06-20T07:57:19.727Z,8.700000
2019-06-20T07:59:50.203Z,7.200000
2019-06-20T08:02:20.473Z,7.200000
2019-06-20T08:04:51.038Z,8.000000
2019-06-20T08:07:21.674Z,8.000000
2019-06-20T08:09:52.163Z,19.000000
2019-06-20T08:12:22.613Z,19.000000
2019-06-20T08:14:52.983Z,11.600000
2019-06-20T08:17:34.903Z,11.600000
2019-06-20T08:20:05.916Z,13.900000
2019-06-20T08:22:36.384Z,13.900000
2019-06-20T08:25:06.826Z,27.000000
2019-06-20T08:27:37.204Z,27.000000
2019-06-20T08:30:07.413Z,15.500000
2019-06-20T08:32:37.862Z,15.500000
2019-06-20T08:35:08.301Z,21.100000
2019-06-20T08:37:38.788Z,21.100000
2019-06-20T08:40:09.187Z,2.900000
2019-06-20T08:42:39.628Z,2.900000
2019-06-20T08:45:10.188Z,0.300000
2019-06-20T08:47:40.597Z,0.300000
2019-06-20T08:50:11.339Z,0.100000
2019-06-20T08:52:41.854Z,0.100000
2019-06-20T08:55:12.281Z,0.100000
2019-06-20T08:57:43.072Z,0.100000
2019-06-20T09:00:13.562Z,0.500000
2019-06-20T09:02:44.109Z,0.500000
2019-06-20T09:05:14.648Z,0.100000
2019-06-20T09:07:45.057Z,0.100000
2019-06-20T09:10:15.422Z,0.200000
2019-06-20T09:12:45.792Z,0.200000
2019-06-20T09:15:16.238Z,0.900000
2019-06-20T09:17:46.611Z,0.900000
2019-06-20T09:20:17.170Z,0.600000
2019-06-20T09:22:47.598Z,0.600000
2019-06-20T09:25:18.455Z,1.100000
2019-06-20T09:27:48.757Z,1.100000
2019-06-20T09:30:19.333Z,0.500000
2019-06-20T09:32:49.806Z,0.500000
2019-06-20T09:35:20.204Z,0.200000
2019-06-20T09:37:50.855Z,0.200000
2019-06-20T09:40:22.254Z,0.200000
2019-06-20T09:42:52.993Z,0.200000
2019-06-20T09:45:23.440Z,0.100000
2019-06-20T09:47:53.837Z,0.100000
2019-06-20T09:50:24.198Z,0.600000
2019-06-20T09:52:54.923Z,0.600000
2019-06-20T09:55:26.853Z,0.500000
2019-06-20T09:57:58.308Z,0.500000
2019-06-20T10:00:28.827Z,1.400000
2019-06-20T10:02:59.499Z,1.400000
2019-06-20T10:05:29.860Z,0.500000
2019-06-20T10:08:00.310Z,0.500000
2019-06-20T10:10:30.633Z,0.200000
2019-06-20T10:13:01.095Z,0.200000
2019-06-20T10:15:31.446Z,0.200000
2019-06-20T10:18:01.893Z,0.200000
2019-06-20T10:20:38.985Z,0.600000
2019-06-20T10:23:10.740Z,0.600000
2019-06-20T10:25:41.646Z,0.100000
2019-06-20T10:28:12.110Z,0.100000
2019-06-20T10:30:42.750Z,0.200000
2019-06-20T10:33:13.061Z,0.200000
2019-06-20T10:35:45.226Z,0.000000
2019-06-20T10:38:16.348Z,0.000000
2019-06-20T10:40:47.970Z,0.600000
2019-06-20T10:43:18.385Z,0.600000
2019-06-20T10:45:49.452Z,0.600000
2019-06-20T10:48:19.843Z,0.600000
2019-06-20T10:50:50.327Z,0.100000
2019-06-20T10:53:20.615Z,0.100000
2019-06-20T10:55:51.212Z,0.300000
2019-06-20T10:58:21.800Z,0.300000
2019-06-20T11:00:52.683Z,0.200000
2019-06-20T11:03:23.021Z,0.200000
2019-06-20T11:05:53.965Z,0.100000
2019-06-20T11:08:24.531Z,0.100000
2019-06-20T11:10:55.056Z,0.000000
2019-06-20T11:13:25.552Z,0.000000
2019-06-20T11:15:56.009Z,0.000000
2019-06-20T11:18:26.880Z,0.000000
2019-06-20T11:20:57.421Z,1.400000
2019-06-20T11:23:27.979Z,1.400000
2019-06-20T11:25:58.261Z,0.100000
2019-06-20T11:28:28.626Z,0.100000
2019-06-20T11:31:00.569Z,0.700000
2019-06-20T11:33:31.675Z,0.700000
2019-06-20T11:36:01.985Z,0.000000
2019-06-20T11:38:32.509Z,0.000000
2019-06-20T11:41:03.017Z,0.100000
2019-06-20T11:43:35.189Z,0.100000
2019-06-20T11:46:07.238Z,0.600000
2019-06-20T11:48:38.469Z,0.600000
2019-06-20T11:51:09.185Z,0.100000
2019-06-20T11:53:40.655Z,0.100000
2019-06-20T11:56:11.035Z,0.200000
2019-06-20T11:58:41.481Z,0.200000
2019-06-20T12:01:11.934Z,0.000000
2019-06-20T12:03:42.570Z,0.000000
2019-06-20T12:06:13.120Z,0.000000
2019-06-20T12:08:45.151Z,0.000000
2019-06-20T12:11:15.804Z,0.000000
2019-06-20T12:13:46.487Z,0.000000
2019-06-20T12:16:17.082Z,0.400000
2019-06-20T12:18:47.613Z,0.400000
2019-06-20T12:21:18.081Z,0.000000
2019-06-20T12:23:49.020Z,0.000000
2019-06-20T12:26:19.688Z,0.300000
2019-06-20T12:28:49.995Z,0.300000
2019-06-20T12:31:20.437Z,0.000000
2019-06-20T12:33:50.765Z,0.000000
2019-06-20T12:36:21.496Z,0.000000
2019-06-20T12:38:52.119Z,0.400000
2019-06-20T12:41:22.585Z,0.400000
2019-06-20T12:43:53.138Z,0.000000
2019-06-20T12:46:23.456Z,0.000000
2019-06-20T12:48:53.843Z,0.000000
2019-06-20T12:51:24.457Z,0.000000
2019-06-20T12:53:54.828Z,0.000000
2019-06-20T12:56:25.481Z,0.000000
2019-06-20T12:58:56.655Z,0.200000
2019-06-20T13:01:36.745Z,0.200000
2019-06-20T13:04:10.872Z,0.000000
2019-06-20T13:06:42.240Z,0.000000
2019-06-20T13:09:12.768Z,0.000000
2019-06-20T13:11:44.805Z,0.000000
2019-06-20T13:14:15.401Z,0.600000
2019-06-20T13:16:46.150Z,0.600000
2019-06-20T13:19:16.436Z,2.500000
2019-06-20T13:21:46.930Z,2.500000
2019-06-20T13:24:17.263Z,1.600000
2019-06-20T13:26:49.010Z,1.600000
2019-06-20T13:29:21.257Z,2.000000
2019-06-20T13:32:03.602Z,2.000000
2019-06-20T13:34:41.247Z,2.500000
2019-06-20T13:37:15.539Z,2.500000
2019-06-20T13:39:47.360Z,2.900000
2019-06-20T13:42:17.733Z,2.900000
2019-06-20T13:44:49.475Z,2.400000
2019-06-20T13:47:19.996Z,2.400000
2019-06-20T13:49:50.480Z,2.500000
2019-06-20T13:52:20.941Z,2.500000
2019-06-20T13:54:51.314Z,1.800000
2019-06-20T13:57:21.820Z,1.800000
2019-06-20T13:59:54.508Z,2.700000
2019-06-20T14:02:25.737Z,2.700000
2019-06-20T14:04:56.705Z,1.300000
2019-06-20T14:07:27.044Z,1.300000
2019-06-20T14:09:57.647Z,1.400000
2019-06-20T14:12:27.960Z,1.400000
2019-06-20T14:14:58.576Z,1.500000
2019-06-20T14:17:29.247Z,1.500000
2019-06-20T14:19:59.695Z,1.000000
2019-06-20T14:22:30.017Z,1.000000
2019-06-20T14:25:00.400Z,2.000000
2019-06-20T14:27:30.996Z,2.000000
2019-06-20T14:30:01.673Z,1.000000
2019-06-20T14:32:32.264Z,1.000000
2019-06-20T14:35:02.560Z,1.200000
2019-06-20T14:37:33.079Z,1.200000
2019-06-20T14:40:03.872Z,1.300000
2019-06-20T14:42:34.187Z,1.300000
2019-06-20T14:45:04.633Z,1.600000
2019-06-20T14:47:35.067Z,1.600000
2019-06-20T14:50:05.528Z,1.500000
2019-06-20T14:52:36.095Z,1.500000
2019-06-20T14:55:06.649Z,2.200000
2019-06-20T14:57:37.394Z,2.200000
2019-06-20T15:00:09.143Z,2.000000
2019-06-20T15:02:39.890Z,2.000000
2019-06-20T15:05:10.437Z,1.900000
2019-06-20T15:07:42.255Z,1.900000
2019-06-20T15:10:12.678Z,1.300000
2019-06-20T15:12:45.707Z,1.300000
2019-06-20T15:15:16.716Z,2.200000
2019-06-20T15:17:49.880Z,2.200000
2019-06-20T15:20:23.376Z,1.300000
2019-06-20T15:22:54.826Z,1.300000
2019-06-20T15:25:25.246Z,1.700000
2019-06-20T15:27:57.113Z,1.700000
2019-06-20T15:30:28.636Z,1.800000
2019-06-20T15:33:09.360Z,1.800000
2019-06-20T15:35:40.508Z,2.100000
2019-06-20T15:38:10.829Z,2.100000
2019-06-20T15:40:41.322Z,3.200000
2019-06-20T15:43:11.716Z,3.200000
2019-06-20T15:45:42.207Z,2.000000
2019-06-20T15:48:12.702Z,2.000000
2019-06-20T15:50:43.235Z,3.100000
2019-06-20T15:53:13.695Z,3.100000
2019-06-20T15:55:43.997Z,2.300000
2019-06-20T15:58:14.504Z,2.300000
2019-06-20T16:00:46.299Z,2.600000
2019-06-20T16:03:16.533Z,2.600000
2019-06-20T16:05:47.944Z,3.400000
2019-06-20T16:08:18.297Z,3.400000
2019-06-20T16:10:48.758Z,1.900000
2019-06-20T16:13:19.224Z,1.900000
2019-06-20T16:15:49.743Z,3.500000
2019-06-20T16:18:20.281Z,3.500000
2019-06-20T16:20:55.663Z,3.100000
2019-06-20T16:23:25.996Z,3.100000
2019-06-20T16:25:56.309Z,2.700000
2019-06-20T16:28:26.695Z,2.700000
2019-06-20T16:31:08.411Z,2.900000
2019-06-20T16:33:43.667Z,3.300000
2019-06-20T16:36:14.187Z,3.300000
2019-06-20T16:38:44.557Z,2.500000
2019-06-20T16:41:15.489Z,2.500000
2019-06-20T16:43:46.100Z,3.400000
2019-06-20T16:46:16.857Z,3.400000
2019-06-20T16:48:47.320Z,3.900000
2019-06-20T16:51:17.749Z,3.900000
2019-06-20T16:53:48.212Z,3.300000
2019-06-20T16:56:18.533Z,3.300000
2019-06-20T16:58:54.367Z,2.200000
2019-06-20T17:01:24.918Z,2.200000
2019-06-20T17:03:55.273Z,1.800000
2019-06-20T17:06:25.858Z,1.800000
2019-06-20T17:08:56.252Z,3.300000
2019-06-20T17:11:26.677Z,3.300000
2019-06-20T17:13:58.189Z,2.100000
2019-06-20T17:16:29.007Z,2.100000
2019-06-20T17:18:59.756Z,2.300000
2019-06-20T17:21:30.248Z,2.300000
2019-06-20T17:24:00.474Z,2.600000
2019-06-20T17:26:31.531Z,2.600000
2019-06-20T17:29:01.908Z,1.900000
2019-06-20T17:31:32.625Z,1.900000
2019-06-20T17:34:03.386Z,3.500000
2019-06-20T17:36:33.685Z,3.500000
2019-06-20T17:39:04.445Z,43.400000
2019-06-20T17:41:36.357Z,43.400000
2019-06-20T17:44:08.529Z,4.500000
2019-06-20T17:46:39.828Z,4.500000
2019-06-20T17:49:10.752Z,5.200000
2019-06-20T17:51:41.378Z,5.200000
2019-06-20T17:54:11.777Z,2.500000
2019-06-20T17:56:42.429Z,2.500000
2019-06-20T17:59:12.996Z,4.500000
2019-06-20T18:01:43.480Z,4.500000
2019-06-20T18:04:14.540Z,5.100000
2019-06-20T18:06:45.078Z,5.100000
2019-06-20T18:09:16.170Z,3.000000
2019-06-20T18:11:46.561Z,3.000000
2019-06-20T18:14:16.777Z,2.200000
2019-06-20T18:16:47.168Z,2.200000
2019-06-20T18:19:17.854Z,2.100000
2019-06-20T18:21:48.303Z,2.100000
2019-06-20T18:24:18.940Z,2.500000
2019-06-20T18:26:49.441Z,2.500000
2019-06-20T18:29:19.904Z,2.500000
2019-06-20T18:31:50.377Z,2.500000
2019-06-20T18:34:29.929Z,2.200000
2019-06-20T18:37:01.151Z,2.200000
2019-06-20T18:39:31.784Z,2.400000
2019-06-20T18:42:02.139Z,2.400000
2019-06-20T18:44:32.616Z,6.400000
2019-06-20T18:47:02.911Z,6.400000
2019-06-20T18:49:33.406Z,3.800000
2019-06-20T18:52:03.803Z,3.800000
2019-06-20T18:54:34.280Z,4.800000
2019-06-20T18:57:04.791Z,4.800000
2019-06-20T18:59:35.319Z,2.700000
2019-06-20T19:02:05.863Z,2.700000
2019-06-20T19:04:46.257Z,2.200000
2019-06-20T19:07:20.263Z,2.200000
2019-06-20T19:09:50.616Z,5.200000
2019-06-20T19:12:21.214Z,5.200000
2019-06-20T19:14:51.576Z,5.900000
2019-06-20T19:17:22.045Z,5.900000
2019-06-20T19:19:52.779Z,3.800000
2019-06-20T19:22:23.186Z,3.800000
2019-06-20T19:24:58.537Z,5.900000
2019-06-20T19:27:44.773Z,5.900000
2019-06-20T19:30:16.764Z,8.500000
2019-06-20T19:32:47.086Z,8.500000
2019-06-20T19:35:17.473Z,4.500000
2019-06-20T19:37:47.911Z,4.500000
2019-06-20T19:40:18.577Z,9.700000
2019-06-20T19:42:49.035Z,9.700000
2019-06-20T19:45:19.514Z,9.400000
2019-06-20T19:47:50.021Z,9.400000
2019-06-20T19:50:20.667Z,8.900000
2019-06-20T19:52:51.090Z,8.900000
2019-06-20T19:55:21.597Z,5.000000
2019-06-20T19:57:52.218Z,5.000000
2019-06-20T20:00:22.719Z,6.400000
2019-06-20T20:02:53.100Z,6.400000
2019-06-20T20:05:23.675Z,10.300000
2019-06-20T20:07:54.407Z,10.300000
2019-06-20T20:10:24.990Z,6.300000
2019-06-20T20:12:55.446Z,6.300000
2019-06-20T20:15:25.899Z,6.600000
2019-06-20T20:17:56.334Z,6.600000
2019-06-20T20:20:26.777Z,7.500000
2019-06-20T20:22:57.324Z,7.500000
2019-06-20T20:25:27.854Z,9.300000
2019-06-20T20:27:58.301Z,9.300000
2019-06-20T20:30:28.685Z,9.000000
2019-06-20T20:33:01.956Z,9.000000
2019-06-20T20:35:35.831Z,10.000000
2019-06-20T20:38:06.574Z,23.700000
2019-06-20T20:40:37.095Z,23.700000
2019-06-20T20:43:07.692Z,22.700000
2019-06-20T20:45:38.261Z,22.700000
2019-06-20T20:48:08.616Z,23.200000
2019-06-20T20:50:38.944Z,23.200000
2019-06-20T20:53:09.458Z,22.700000
2019-06-20T20:55:39.818Z,22.700000
2019-06-20T20:58:10.330Z,23.500000
2019-06-20T21:00:40.672Z,23.500000
2019-06-20T21:03:10.991Z,19.400000
2019-06-20T21:05:50.875Z,19.400000
2019-06-20T21:08:22.192Z,22.400000
2019-06-20T21:10:53.843Z,22.400000
2019-06-20T21:13:24.287Z,15.900000
2019-06-20T21:15:54.970Z,15.900000
2019-06-20T21:18:25.337Z,15.900000
2019-06-20T21:20:55.856Z,15.900000
2019-06-20T21:23:26.270Z,15.400000
2019-06-20T21:25:56.639Z,15.400000
2019-06-20T21:28:27.117Z,14.600000
2019-06-20T21:30:57.443Z,14.600000
2019-06-20T21:33:27.771Z,13.000000
2019-06-20T21:36:08.526Z,13.000000
2019-06-20T21:38:39.501Z,11.900000
2019-06-20T21:41:09.829Z,11.900000
2019-06-20T21:43:40.241Z,9.400000
2019-06-20T21:46:10.590Z,9.400000
2019-06-20T21:48:41.118Z,9.300000
2019-06-20T21:51:12.228Z,9.300000
2019-06-20T21:53:43.198Z,8.100000
2019-06-20T21:56:13.583Z,8.100000
2019-06-20T21:58:44.088Z,6.300000
2019-06-20T22:01:14.872Z,6.300000
2019-06-20T22:03:45.212Z,8.000000
2019-06-20T22:06:23.839Z,8.000000
2019-06-20T22:08:54.538Z,8.000000
2019-06-20T22:11:24.878Z,8.000000
2019-06-20T22:13:55.683Z,7.700000
2019-06-20T22:16:26.308Z,7.700000
2019-06-20T22:18:56.596Z,6.200000
2019-06-20T22:21:32.156Z,6.200000
2019-06-20T22:24:02.612Z,5.700000
2019-06-20T22:26:33.005Z,5.700000
2019-06-20T22:29:03.421Z,5.900000
2019-06-20T22:31:34.022Z,5.900000
2019-06-20T22:34:04.419Z,6.300000
2019-06-20T22:36:40.386Z,6.300000
2019-06-20T22:39:11.000Z,4.600000
2019-06-20T22:41:41.317Z,4.600000
2019-06-20T22:44:11.661Z,9.200000
2019-06-20T22:46:42.139Z,9.200000
2019-06-20T22:49:12.439Z,7.200000
2019-06-20T22:51:42.950Z,7.200000
2019-06-20T22:54:13.450Z,5.900000
2019-06-20T22:56:43.737Z,5.900000
2019-06-20T22:59:14.041Z,9.400000
2019-06-20T23:01:44.345Z,9.400000
2019-06-20T23:04:14.670Z,6.700000
2019-06-20T23:06:55.786Z,6.700000
2019-06-20T23:09:27.585Z,7.700000
2019-06-20T23:11:58.001Z,7.700000
2019-06-20T23:14:28.283Z,5.900000
2019-06-20T23:16:58.899Z,5.900000
2019-06-20T23:19:29.407Z,5.600000
2019-06-20T23:21:59.931Z,5.600000
2019-06-20T23:24:30.737Z,6.400000
2019-06-20T23:27:01.116Z,6.400000
2019-06-20T23:29:31.488Z,8.000000
2019-06-20T23:32:02.522Z,8.000000
2019-06-20T23:34:33.148Z,6.600000
2019-06-20T23:37:12.610Z,6.600000
2019-06-20T23:39:43.719Z,8.000000
2019-06-20T23:42:14.317Z,8.000000
2019-06-20T23:44:44.570Z,7.900000
2019-06-20T23:47:15.055Z,7.900000
2019-06-20T23:49:45.451Z,3.900000
2019-06-20T23:52:15.919Z,3.900000
2019-06-20T23:54:46.397Z,6.300000
2019-06-20T23:57:16.766Z,6.300000
2019-06-20T23:59:47.284Z,5.200000
